Time;durP1;ratioP1;P1;durP2;ratioP2;P2;SDS_P1;SDS_P2;PMS_P1;PMS_P2;Temp;Humidity;BMP_temperature;BMP_pressure;BME280_temperature;BME280_humidity;BME280_pressure;Samples;Min_cycle;Max_cycle;Signal;HPM_P1;HPM_P2
2021/10/22 00:00:30;;;;;;;8.18;2.05;;;7.60;1.00;;;;;;5118497;27;20995;-77
2021/10/22 00:02:57;;;;;;;8.65;2.10;;;7.60;1.00;;;;;;5110537;27;20223;-77
2021/10/22 00:05:23;;;;;;;7.50;3.05;;;7.60;1.00;;;;;;5117750;27;20219;-77
2021/10/22 00:07:50;;;;;;;10.50;2.22;;;7.60;1.00;;;;;;5111820;27;20230;-76
2021/10/22 00:10:17;;;;;;;12.20;2.38;;;7.50;1.00;;;;;;5115445;27;20326;-76
2021/10/22 00:12:43;;;;;;;7.97;3.15;;;7.50;1.00;;;;;;5114632;27;20219;-77
2021/10/22 00:15:11;;;;;;;5.68;2.40;;;7.50;1.00;;;;;;5115008;27;20759;-76
2021/10/22 00:17:39;;;;;;;6.47;2.25;;;7.40;1.00;;;;;;5131260;27;20231;-76
2021/10/22 00:20:08;;;;;;;9.68;2.30;;;7.40;1.00;;;;;;5115495;27;20282;-77
2021/10/22 00:22:35;;;;;;;7.07;2.85;;;7.40;1.00;;;;;;5092111;27;20246;-76
2021/10/22 00:25:01;;;;;;;6.20;3.25;;;7.40;1.00;;;;;;5111983;27;20223;-76
2021/10/22 00:27:28;;;;;;;7.18;2.20;;;7.40;1.00;;;;;;5113712;27;20669;-76
2021/10/22 00:29:55;;;;;;;8.30;2.25;;;7.40;1.00;;;;;;5112919;27;20219;-76
2021/10/22 00:32:22;;;;;;;7.97;2.67;;;7.40;1.00;;;;;;5112490;27;20963;-76
2021/10/22 00:34:50;;;;;;;9.65;3.22;;;7.40;1.00;;;;;;5123245;27;20225;-76
2021/10/22 00:37:17;;;;;;;7.80;2.40;;;7.30;1.00;;;;;;5124082;27;20210;-76
2021/10/22 00:39:44;;;;;;;6.97;2.50;;;7.30;1.00;;;;;;5114220;27;20254;-76
2021/10/22 00:42:11;;;;;;;8.25;2.78;;;7.30;1.00;;;;;;5112541;27;20239;-76
2021/10/22 00:44:38;;;;;;;12.23;3.00;;;7.30;1.00;;;;;;5113802;27;20220;-76
2021/10/22 00:47:05;;;;;;;6.05;2.38;;;7.30;1.00;;;;;;5117067;27;20381;-76
2021/10/22 00:49:32;;;;;;;6.90;2.30;;;7.30;1.00;;;;;;5109200;27;20281;-76
2021/10/22 00:52:00;;;;;;;12.65;3.65;;;7.20;1.00;;;;;;5110835;27;20232;-76
2021/10/22 00:54:26;;;;;;;6.90;2.70;;;7.20;1.00;;;;;;5113167;27;21179;-76
2021/10/22 00:56:54;;;;;;;9.38;2.10;;;7.20;1.00;;;;;;5112926;27;20223;-76
2021/10/22 00:59:20;;;;;;;6.15;2.30;;;7.20;1.00;;;;;;5111839;27;21837;-76
2021/10/22 01:01:47;;;;;;;6.53;2.17;;;7.20;1.00;;;;;;5111165;27;20238;-76
2021/10/22 01:04:14;;;;;;;7.15;3.08;;;7.20;1.00;;;;;;5116814;27;20222;-76
2021/10/22 01:06:41;;;;;;;5.65;2.45;;;7.20;1.00;;;;;;5109751;27;20218;-76
2021/10/22 01:09:11;;;;;;;5.80;2.33;;;7.20;1.00;;;;;;5093941;27;20278;-75
2021/10/22 01:11:39;;;;;;;6.80;2.17;;;7.20;1.00;;;;;;5118987;27;20218;-76
2021/10/22 01:14:07;;;;;;;6.78;2.38;;;7.20;1.00;;;;;;5127071;27;20219;-76
2021/10/22 01:16:37;;;;;;;5.63;2.25;;;7.20;1.00;;;;;;5113566;27;20712;-76
2021/10/22 01:19:04;;;;;;;5.97;2.17;;;7.20;1.00;;;;;;5113415;27;20223;-76
2021/10/22 01:21:32;;;;;;;5.25;2.75;;;7.20;1.00;;;;;;5097973;27;20229;-76
2021/10/22 01:23:59;;;;;;;6.45;2.60;;;7.20;1.00;;;;;;5116379;27;20214;-76
2021/10/22 01:26:25;;;;;;;7.05;2.35;;;7.20;1.00;;;;;;5119344;27;20230;-76
2021/10/22 01:28:52;;;;;;;9.68;2.20;;;7.10;1.00;;;;;;5120630;27;20748;-76
2021/10/22 01:31:19;;;;;;;9.30;2.40;;;7.10;1.00;;;;;;5117484;27;20222;-76
2021/10/22 01:33:48;;;;;;;10.02;2.42;;;7.10;1.00;;;;;;5118157;27;20219;-76
2021/10/22 01:36:15;;;;;;;6.80;2.17;;;7.10;1.00;;;;;;5117617;27;20951;-75
2021/10/22 01:38:43;;;;;;;8.13;2.47;;;7.10;1.00;;;;;;5130135;27;20214;-75
2021/10/22 01:41:10;;;;;;;8.68;2.80;;;7.10;1.00;;;;;;5129901;27;20219;-76
2021/10/22 01:43:39;;;;;;;7.38;2.67;;;7.10;1.00;;;;;;5119381;27;20223;-76
2021/10/22 01:46:06;;;;;;;8.23;3.33;;;7.10;1.00;;;;;;5116005;27;21084;-75
2021/10/22 01:48:33;;;;;;;9.48;2.70;;;7.10;1.00;;;;;;5118971;27;20223;-76
2021/10/22 01:50:59;;;;;;;6.88;2.05;;;7.10;1.00;;;;;;5113394;27;20216;-75
2021/10/22 01:53:26;;;;;;;5.45;2.58;;;7.10;1.00;;;;;;5117905;27;20319;-76
2021/10/22 01:55:54;;;;;;;5.50;2.60;;;7.10;1.00;;;;;;5114249;27;20266;-75
2021/10/22 01:58:58;;;;;;;8.32;2.55;;;7.10;1.00;;;;;;5120324;27;21131;-76
2021/10/22 02:01:25;;;;;;;7.85;1.98;;;7.10;1.00;;;;;;5114175;27;21011;-76
2021/10/22 02:03:52;;;;;;;8.95;3.55;;;7.10;1.00;;;;;;5115512;27;20245;-76
2021/10/22 02:06:18;;;;;;;6.03;2.40;;;7.10;1.00;;;;;;5117559;27;20233;-76
2021/10/22 02:08:45;;;;;;;9.48;2.15;;;7.10;1.00;;;;;;5117603;27;20225;-76
2021/10/22 02:11:13;;;;;;;10.30;2.95;;;7.10;1.00;;;;;;5116452;27;20331;-75
2021/10/22 02:13:40;;;;;;;9.60;2.55;;;7.10;1.00;;;;;;5096616;27;21477;-76
2021/10/22 02:16:06;;;;;;;5.82;2.65;;;7.10;1.00;;;;;;5112255;27;20247;-75
2021/10/22 02:18:33;;;;;;;9.20;2.97;;;7.10;1.00;;;;;;5117521;27;20796;-76
2021/10/22 02:20:59;;;;;;;11.32;2.78;;;7.10;1.00;;;;;;5116590;27;20962;-75
2021/10/22 02:23:26;;;;;;;7.10;2.22;;;7.10;1.00;;;;;;5120752;27;20274;-76
2021/10/22 02:25:53;;;;;;;6.88;2.10;;;7.00;1.00;;;;;;5114765;27;20218;-76
2021/10/22 02:28:21;;;;;;;8.80;2.67;;;7.00;1.00;;;;;;5113851;27;20220;-75
2021/10/22 02:30:47;;;;;;;6.88;2.58;;;7.00;1.00;;;;;;5115845;27;20223;-76
2021/10/22 02:33:14;;;;;;;6.93;2.63;;;7.10;1.00;;;;;;5114307;27;21113;-76
2021/10/22 02:35:41;;;;;;;8.40;2.35;;;7.10;1.00;;;;;;5117274;27;20218;-75
2021/10/22 02:38:08;;;;;;;6.05;2.60;;;7.10;1.00;;;;;;5120903;27;20225;-75
2021/10/22 02:40:34;;;;;;;6.00;2.10;;;7.10;1.00;;;;;;5133366;27;20220;-75
2021/10/22 02:43:01;;;;;;;8.80;3.03;;;7.10;1.00;;;;;;5122919;27;20220;-75
2021/10/22 02:45:29;;;;;;;9.13;2.67;;;7.20;1.00;;;;;;5091391;27;20222;-76
2021/10/22 02:47:55;;;;;;;9.40;2.63;;;7.20;1.00;;;;;;5113551;27;20232;-76
2021/10/22 02:50:22;;;;;;;7.55;2.42;;;7.20;1.00;;;;;;5113454;27;20223;-75
2021/10/22 02:52:49;;;;;;;7.35;2.42;;;7.20;1.00;;;;;;5114042;27;20226;-76
2021/10/22 02:55:16;;;;;;;7.43;3.00;;;7.20;1.00;;;;;;5115920;27;20246;-76
2021/10/22 02:57:43;;;;;;;6.25;3.03;;;7.30;1.00;;;;;;5115983;27;20227;-76
2021/10/22 03:00:11;;;;;;;7.88;3.05;;;7.30;1.00;;;;;;5113361;27;20329;-76
2021/10/22 03:02:40;;;;;;;6.22;1.98;;;7.30;1.00;;;;;;5110210;27;20292;-75
2021/10/22 03:05:07;;;;;;;6.45;2.25;;;7.30;1.00;;;;;;5116536;27;20235;-76
2021/10/22 03:07:33;;;;;;;8.68;2.90;;;7.30;1.00;;;;;;5115779;27;20223;-76
2021/10/22 03:10:00;;;;;;;6.60;3.15;;;7.30;1.00;;;;;;5119617;27;20224;-76
2021/10/22 03:12:27;;;;;;;6.63;2.50;;;7.30;1.00;;;;;;5114743;27;20288;-76
2021/10/22 03:14:53;;;;;;;6.45;2.10;;;7.30;1.00;;;;;;5118976;27;20223;-76
2021/10/22 03:17:20;;;;;;;6.90;2.30;;;7.30;1.00;;;;;;5118064;27;20223;-76
2021/10/22 03:19:48;;;;;;;8.20;2.60;;;7.40;1.00;;;;;;5118615;27;20999;-76
2021/10/22 03:22:15;;;;;;;7.40;3.08;;;7.30;1.00;;;;;;5116964;27;20215;-76
2021/10/22 03:24:41;;;;;;;7.93;2.55;;;7.30;1.00;;;;;;5114343;27;20223;-76
2021/10/22 03:27:10;;;;;;;8.90;2.85;;;7.40;1.00;;;;;;5116898;27;20230;-76
2021/10/22 03:29:37;;;;;;;10.55;2.53;;;7.30;1.00;;;;;;5118044;27;20300;-76
2021/10/22 03:32:05;;;;;;;5.78;2.40;;;7.30;1.00;;;;;;5117085;27;20218;-76
2021/10/22 03:34:32;;;;;;;9.68;2.40;;;7.30;1.00;;;;;;5119759;27;20211;-76
2021/10/22 03:37:00;;;;;;;9.65;2.25;;;7.30;1.00;;;;;;5115825;27;20227;-76
2021/10/22 03:39:27;;;;;;;11.27;2.30;;;7.40;1.00;;;;;;5111737;27;20461;-76
2021/10/22 03:41:53;;;;;;;6.82;2.60;;;7.40;1.00;;;;;;5113375;27;20235;-76
2021/10/22 03:44:20;;;;;;;7.95;2.40;;;7.40;1.00;;;;;;5114477;27;20242;-75
2021/10/22 03:46:47;;;;;;;8.23;2.40;;;7.40;1.00;;;;;;5123290;27;20686;-75
2021/10/22 03:49:14;;;;;;;9.18;2.65;;;7.40;1.00;;;;;;5124251;27;20275;-75
2021/10/22 03:51:41;;;;;;;8.77;2.35;;;7.40;1.00;;;;;;5119089;27;20215;-76
2021/10/22 03:54:09;;;;;;;6.63;2.05;;;7.30;1.00;;;;;;5095703;27;20238;-76
2021/10/22 03:56:35;;;;;;;7.20;2.55;;;7.40;1.00;;;;;;5110871;27;20218;-78
2021/10/22 03:59:02;;;;;;;7.30;2.83;;;7.40;1.00;;;;;;5096298;27;21023;-75
2021/10/22 04:01:29;;;;;;;7.32;2.15;;;7.40;1.00;;;;;;5112253;27;20215;-75
2021/10/22 04:03:56;;;;;;;7.30;2.30;;;7.40;1.00;;;;;;5116430;27;20785;-75
2021/10/22 04:06:22;;;;;;;6.70;2.35;;;7.40;1.00;;;;;;5114865;27;20222;-75
2021/10/22 04:08:49;;;;;;;10.25;4.68;;;7.50;1.00;;;;;;5113938;27;20227;-77
2021/10/22 04:11:17;;;;;;;8.20;2.30;;;7.40;1.00;;;;;;5113889;27;20230;-76
2021/10/22 04:13:43;;;;;;;7.20;2.40;;;7.40;1.00;;;;;;5114791;27;20228;-76
2021/10/22 04:16:10;;;;;;;10.13;3.50;;;7.40;1.00;;;;;;5119945;27;21016;-75
2021/10/22 04:18:37;;;;;;;6.82;2.85;;;7.40;1.00;;;;;;5111491;27;21405;-76
2021/10/22 04:21:04;;;;;;;13.95;3.78;;;7.40;1.00;;;;;;5117529;27;20227;-76
2021/10/22 04:23:31;;;;;;;7.90;2.13;;;7.40;1.00;;;;;;5092198;27;20239;-77
2021/10/22 04:25:58;;;;;;;9.05;2.60;;;7.40;1.00;;;;;;5095537;27;20223;-77
2021/10/22 04:28:26;;;;;;;6.43;2.65;;;7.40;1.00;;;;;;5112030;27;20292;-77
2021/10/22 04:30:53;;;;;;;7.35;2.38;;;7.40;1.00;;;;;;5114995;27;20211;-77
2021/10/22 04:33:19;;;;;;;7.13;2.65;;;7.40;1.00;;;;;;5113389;27;20220;-77
2021/10/22 04:35:46;;;;;;;10.00;3.55;;;7.30;1.00;;;;;;5116713;27;20230;-77
2021/10/22 04:40:57;;;;;;;7.15;3.10;;;7.30;1.00;;;;;;5112214;27;20218;-77
2021/10/22 04:43:25;;;;;;;9.85;2.03;;;7.30;1.00;;;;;;5123528;27;20400;-76
2021/10/22 04:45:54;;;;;;;7.78;1.75;;;7.40;1.00;;;;;;5125150;27;20234;-77
2021/10/22 04:48:21;;;;;;;10.05;2.92;;;7.30;1.00;;;;;;5122398;27;20223;-77
2021/10/22 04:50:50;;;;;;;5.60;2.10;;;7.40;1.00;;;;;;5113403;27;20230;-77
2021/10/22 04:53:18;;;;;;;7.38;2.10;;;7.40;1.00;;;;;;5111227;27;20233;-76
2021/10/22 04:55:44;;;;;;;13.13;2.80;;;7.40;1.00;;;;;;5116978;27;20219;-77
2021/10/22 04:58:11;;;;;;;8.98;2.30;;;7.40;1.00;;;;;;5114274;27;20231;-77
2021/10/22 05:00:38;;;;;;;6.25;1.75;;;7.40;1.00;;;;;;5110819;27;20212;-77
2021/10/22 05:03:06;;;;;;;10.05;2.50;;;7.40;1.00;;;;;;5111123;27;20308;-76
2021/10/22 05:05:33;;;;;;;8.35;2.13;;;7.40;1.00;;;;;;5121009;27;20224;-76
2021/10/22 05:08:00;;;;;;;6.05;2.63;;;7.40;1.00;;;;;;5093157;27;20224;-76
2021/10/22 05:10:27;;;;;;;7.78;2.28;;;7.40;1.00;;;;;;5115805;27;20225;-76
2021/10/22 05:12:53;;;;;;;6.10;2.42;;;7.40;1.00;;;;;;5111254;27;20224;-76
2021/10/22 05:15:20;;;;;;;5.15;1.95;;;7.30;1.00;;;;;;5110517;27;20924;-76
2021/10/22 05:17:46;;;;;;;4.28;2.05;;;7.30;1.00;;;;;;5116218;27;20215;-77
2021/10/22 05:20:14;;;;;;;7.68;2.22;;;7.30;1.00;;;;;;5120932;27;20223;-76
2021/10/22 05:22:41;;;;;;;5.50;1.83;;;7.40;1.00;;;;;;5116919;27;20234;-76
2021/10/22 05:25:09;;;;;;;5.68;2.17;;;7.40;1.00;;;;;;5111085;27;20254;-76
2021/10/22 05:27:36;;;;;;;6.05;2.20;;;7.40;1.00;;;;;;5115359;27;20234;-77
2021/10/22 05:30:03;;;;;;;6.63;1.98;;;7.40;1.00;;;;;;5115124;27;20216;-76
2021/10/22 05:32:30;;;;;;;7.10;2.95;;;7.40;1.00;;;;;;5116352;27;20231;-77
2021/10/22 05:34:57;;;;;;;5.50;2.05;;;7.40;1.00;;;;;;5114092;27;20223;-77
2021/10/22 05:37:25;;;;;;;5.97;2.50;;;7.40;1.00;;;;;;5114372;27;20748;-77
2021/10/22 05:39:51;;;;;;;9.50;2.50;;;7.40;1.00;;;;;;5118913;27;20714;-76
2021/10/22 05:42:19;;;;;;;7.25;2.10;;;7.40;1.00;;;;;;5115320;27;20219;-77
2021/10/22 05:44:45;;;;;;;6.07;2.25;;;7.30;1.00;;;;;;5111040;27;20238;-77
2021/10/22 05:47:12;;;;;;;6.20;1.88;;;7.30;1.00;;;;;;5113425;27;20248;-77
2021/10/22 05:49:40;;;;;;;9.55;2.95;;;7.30;1.00;;;;;;5112917;27;20230;-77
2021/10/22 05:52:07;;;;;;;6.28;2.40;;;7.30;1.00;;;;;;5115241;27;20236;-77
2021/10/22 05:54:35;;;;;;;5.68;2.13;;;7.30;1.00;;;;;;5117281;27;20655;-76
2021/10/22 05:57:02;;;;;;;7.68;2.92;;;7.40;1.00;;;;;;5114519;27;20618;-76
2021/10/22 05:59:28;;;;;;;5.15;2.22;;;7.40;1.00;;;;;;5115275;27;20223;-76
2021/10/22 06:01:56;;;;;;;4.70;2.05;;;7.40;1.00;;;;;;5113981;27;20311;-77
2021/10/22 06:04:23;;;;;;;5.75;2.40;;;7.40;1.00;;;;;;5112986;27;21014;-77
2021/10/22 06:06:50;;;;;;;10.27;2.65;;;7.40;1.00;;;;;;5113664;27;20233;-77
2021/10/22 06:09:16;;;;;;;9.75;3.40;;;7.50;1.00;;;;;;5114250;27;20223;-77
2021/10/22 06:11:44;;;;;;;6.65;2.08;;;7.50;1.00;;;;;;5118835;27;20228;-76
2021/10/22 06:14:11;;;;;;;9.35;2.75;;;7.50;1.00;;;;;;5114475;27;20280;-76
2021/10/22 06:16:38;;;;;;;6.72;2.35;;;7.60;1.00;;;;;;5119822;27;20220;-76
2021/10/22 06:19:05;;;;;;;6.68;2.83;;;7.60;1.00;;;;;;5120358;27;21265;-77
2021/10/22 06:21:36;;;;;;;6.68;2.10;;;7.70;1.00;;;;;;5115477;27;20215;-77
2021/10/22 06:24:04;;;;;;;5.50;3.10;;;7.80;1.00;;;;;;5118309;27;20241;-76
2021/10/22 06:26:32;;;;;;;5.95;2.70;;;7.90;1.00;;;;;;5117222;27;20370;-76
2021/10/22 06:29:02;;;;;;;5.03;2.00;;;8.00;1.00;;;;;;5116931;27;20771;-76
2021/10/22 06:31:29;;;;;;;5.30;1.90;;;8.00;1.00;;;;;;5116769;27;20226;-76
2021/10/22 06:33:56;;;;;;;7.97;2.45;;;8.10;1.00;;;;;;5121646;27;20222;-75
2021/10/22 06:36:23;;;;;;;7.45;2.65;;;8.10;1.00;;;;;;5128576;27;20223;-76
2021/10/22 06:38:50;;;;;;;5.25;2.30;;;8.10;1.00;;;;;;5124314;27;20238;-77
2021/10/22 06:41:17;;;;;;;9.13;3.20;;;8.20;1.00;;;;;;5114365;27;20303;-77
2021/10/22 06:43:44;;;;;;;5.40;2.30;;;8.20;1.00;;;;;;5117904;27;20236;-76
2021/10/22 06:46:13;;;;;;;6.50;3.13;;;8.30;1.00;;;;;;5114021;27;20227;-77
2021/10/22 06:48:41;;;;;;;8.40;2.67;;;8.30;1.00;;;;;;5113184;27;20242;-77
2021/10/22 06:51:10;;;;;;;5.93;2.20;;;8.30;1.00;;;;;;5116559;27;21128;-76
2021/10/22 06:53:37;;;;;;;9.40;2.70;;;8.30;1.00;;;;;;5114995;27;20230;-77
2021/10/22 06:56:04;;;;;;;5.88;2.42;;;8.30;1.00;;;;;;5116663;27;20695;-77
2021/10/22 06:58:31;;;;;;;8.48;2.67;;;8.40;1.00;;;;;;5117955;27;20242;-77
2021/10/22 07:00:59;;;;;;;5.30;2.20;;;8.40;1.00;;;;;;5120845;27;20235;-77
2021/10/22 07:03:36;;;;;;;5.78;2.30;;;8.40;1.00;;;;;;5115253;27;20219;-77
2021/10/22 07:07:14;;;;;;;9.88;2.50;;;8.40;1.00;;;;;;5113195;27;20302;-76
2021/10/22 07:08:51;;;;;;;5.50;2.20;;;8.50;1.00;;;;;;5116716;27;20257;-76
2021/10/22 07:11:18;;;;;;;6.00;2.42;;;8.50;1.00;;;;;;5116192;27;20216;-76
2021/10/22 07:13:50;;;;;;;6.53;2.10;;;8.50;1.00;;;;;;5119988;27;20219;-77
2021/10/22 07:16:17;;;;;;;5.68;1.95;;;8.60;1.00;;;;;;5112149;27;20814;-77
2021/10/22 07:18:45;;;;;;;3.80;2.35;;;8.60;1.00;;;;;;5114675;27;20233;-76
2021/10/22 07:21:15;;;;;;;4.90;2.10;;;8.60;1.00;;;;;;5114339;27;20229;-75
2021/10/22 07:23:43;;;;;;;4.32;2.15;;;8.60;1.00;;;;;;5128385;27;20229;-76
2021/10/22 07:26:10;;;;;;;11.80;2.80;;;8.70;1.00;;;;;;5123627;27;20248;-77
2021/10/22 07:28:37;;;;;;;7.05;2.30;;;8.70;1.00;;;;;;5123393;27;20220;-76
2021/10/22 07:31:04;;;;;;;4.47;2.30;;;8.80;1.00;;;;;;5114155;27;20298;-76
2021/10/22 07:33:31;;;;;;;6.25;2.20;;;8.80;1.00;;;;;;5110796;27;20235;-77
2021/10/22 07:35:59;;;;;;;4.72;2.53;;;8.90;1.00;;;;;;5114390;27;20226;-77
2021/10/22 07:38:26;;;;;;;9.98;2.88;;;8.90;1.00;;;;;;5117378;27;20239;-77
2021/10/22 07:40:53;;;;;;;6.53;2.63;;;8.90;1.00;;;;;;5117280;27;20221;-77
2021/10/22 07:43:19;;;;;;;11.02;2.75;;;8.90;1.00;;;;;;5116151;27;20960;-77
2021/10/22 07:45:46;;;;;;;6.45;2.85;;;8.90;1.00;;;;;;5115629;27;20219;-77
2021/10/22 07:48:14;;;;;;;6.25;1.90;;;9.00;1.00;;;;;;5116887;27;20247;-76
2021/10/22 07:50:41;;;;;;;7.18;3.33;;;9.00;1.00;;;;;;5115215;27;20224;-77
2021/10/22 07:53:10;;;;;;;5.15;2.10;;;9.00;1.00;;;;;;5112192;27;20320;-77
2021/10/22 07:55:36;;;;;;;6.30;2.42;;;9.00;1.00;;;;;;5112781;27;20223;-76
2021/10/22 07:58:04;;;;;;;5.55;2.35;;;8.90;1.00;;;;;;5116496;27;21197;-76
2021/10/22 08:00:30;;;;;;;6.40;2.40;;;8.80;1.00;;;;;;5112834;27;20990;-77
2021/10/22 08:02:57;;;;;;;7.20;2.50;;;8.90;1.00;;;;;;5120529;27;20232;-77
2021/10/22 08:05:24;;;;;;;9.90;2.55;;;8.90;1.00;;;;;;5114285;27;20243;-77
2021/10/22 08:07:50;;;;;;;6.35;2.35;;;8.90;1.00;;;;;;5112920;27;20228;-79
2021/10/22 08:10:19;;;;;;;7.28;2.60;;;8.80;1.00;;;;;;5115922;27;20267;-77
2021/10/22 08:12:46;;;;;;;7.03;2.97;;;8.80;1.00;;;;;;5115423;27;20224;-76
2021/10/22 08:15:13;;;;;;;4.10;2.10;;;8.90;1.00;;;;;;5117065;27;20235;-76
2021/10/22 08:17:40;;;;;;;6.75;2.30;;;8.80;1.00;;;;;;5115775;27;20231;-77
2021/10/22 08:20:09;;;;;;;9.18;3.03;;;8.80;1.00;;;;;;5119825;27;20220;-78
2021/10/22 08:22:37;;;;;;;7.80;2.78;;;8.90;1.00;;;;;;5124360;27;20208;-76
2021/10/22 08:25:07;;;;;;;6.85;2.80;;;8.90;1.00;;;;;;5125162;27;20300;-77
2021/10/22 08:27:38;;;;;;;5.57;2.30;;;8.80;1.00;;;;;;5114728;27;20726;-76
2021/10/22 08:30:08;;;;;;;9.90;4.20;;;8.90;1.00;;;;;;5114532;27;20761;-77
2021/10/22 08:32:35;;;;;;;9.45;2.72;;;8.90;1.00;;;;;;5112507;27;20256;-77
2021/10/22 08:35:02;;;;;;;4.75;2.13;;;8.90;1.00;;;;;;5119659;27;20220;-77
2021/10/22 08:37:29;;;;;;;4.97;2.30;;;9.00;1.00;;;;;;5113753;27;20235;-77
2021/10/22 08:39:56;;;;;;;6.70;2.90;;;9.00;1.00;;;;;;5117803;27;20226;-76
2021/10/22 08:42:27;;;;;;;6.20;3.10;;;9.00;1.00;;;;;;5112649;27;20311;-77
2021/10/22 08:44:56;;;;;;;5.90;2.22;;;9.10;1.00;;;;;;5113559;27;20357;-77
2021/10/22 08:47:25;;;;;;;5.93;2.13;;;9.10;1.00;;;;;;5112737;27;20281;-76
2021/10/22 08:49:52;;;;;;;7.72;2.20;;;9.10;1.00;;;;;;5117867;27;20736;-77
2021/10/22 08:52:19;;;;;;;5.03;2.00;;;9.20;1.00;;;;;;5111557;27;20231;-75
2021/10/22 08:54:45;;;;;;;5.22;1.67;;;9.20;1.00;;;;;;5116215;27;20224;-77
2021/10/22 08:57:12;;;;;;;7.40;3.47;;;9.30;1.00;;;;;;5113618;27;20230;-76
2021/10/22 08:59:39;;;;;;;7.57;2.10;;;9.30;1.00;;;;;;5117553;27;20223;-77
2021/10/22 09:02:15;;;;;;;10.43;2.63;;;9.40;1.00;;;;;;5113340;27;20217;-77
2021/10/22 09:04:43;;;;;;;3.85;2.50;;;9.40;1.00;;;;;;5115343;27;20226;-76
2021/10/22 09:07:11;;;;;;;5.55;2.63;;;9.40;1.00;;;;;;5116061;27;20226;-76
2021/10/22 09:09:38;;;;;;;9.70;3.00;;;9.50;1.00;;;;;;5126025;27;21364;-78
2021/10/22 09:12:05;;;;;;;5.20;2.60;;;9.50;1.00;;;;;;5116395;27;20561;-77
2021/10/22 09:14:31;;;;;;;7.53;2.80;;;9.60;1.00;;;;;;5113732;27;20229;-77
2021/10/22 09:16:58;;;;;;;10.35;2.60;;;9.70;1.00;;;;;;5114154;27;20220;-77
2021/10/22 09:19:33;;;;;;;6.30;2.83;;;9.70;1.00;;;;;;5117970;27;20378;-76
2021/10/22 09:22:22;;;;;;;6.38;2.70;;;9.90;1.00;;;;;;5121196;27;20463;-76
2021/10/22 09:24:53;;;;;;;9.52;3.30;;;10.00;1.00;;;;;;5117827;27;22447;-77
2021/10/22 09:27:44;;;;;;;7.73;3.27;;;10.20;1.00;;;;;;5112707;27;20310;-77
2021/10/22 09:30:28;;;;;;;7.23;2.33;;;10.20;1.00;;;;;;5116093;27;20445;-76
2021/10/22 09:32:57;;;;;;;9.40;3.42;;;10.10;1.00;;;;;;5114955;27;20453;-77
2021/10/22 09:35:37;;;;;;;7.78;3.83;;;10.10;1.00;;;;;;5114172;27;20225;-77
2021/10/22 09:38:08;;;;;;;8.80;2.70;;;10.10;1.00;;;;;;5114095;27;20233;-78
2021/10/22 09:40:36;;;;;;;6.83;2.30;;;10.10;1.00;;;;;;5113609;27;21543;-77
2021/10/22 09:43:18;;;;;;;5.70;2.80;;;10.00;1.00;;;;;;5115837;27;20546;-78
2021/10/22 09:45:47;;;;;;;9.05;2.40;;;9.90;1.00;;;;;;5118571;27;20231;-76
2021/10/22 09:48:24;;;;;;;6.60;3.80;;;9.70;1.00;;;;;;5117732;27;21012;-77
2021/10/22 09:50:52;;;;;;;8.85;3.22;;;9.70;1.00;;;;;;5122801;27;20221;-76
2021/10/22 09:53:28;;;;;;;7.57;2.42;;;9.80;1.00;;;;;;5124435;27;20220;-76
2021/10/22 09:56:07;;;;;;;6.40;2.72;;;9.80;1.00;;;;;;5114603;27;20227;-77
2021/10/22 09:58:34;;;;;;;6.03;3.15;;;9.90;1.00;;;;;;5118714;27;20296;-76
2021/10/22 10:01:08;;;;;;;6.37;4.10;;;10.10;1.00;;;;;;5117335;27;20996;-75
2021/10/22 10:03:37;;;;;;;6.57;3.20;;;10.10;1.00;;;;;;5114347;27;20453;-76
2021/10/22 10:06:07;;;;;;;6.35;2.80;;;10.00;1.00;;;;;;5120969;27;20284;-77
2021/10/22 10:08:35;;;;;;;6.80;2.60;;;10.00;1.00;;;;;;5114972;27;21118;-78
2021/10/22 10:11:03;;;;;;;7.80;3.00;;;10.10;1.00;;;;;;5113423;27;20460;-77
2021/10/22 10:13:31;;;;;;;7.25;3.03;;;10.00;1.00;;;;;;5117830;27;20445;-77
2021/10/22 10:15:58;;;;;;;6.10;2.60;;;9.90;1.00;;;;;;5117120;27;20720;-77
2021/10/22 10:18:25;;;;;;;6.50;2.67;;;9.70;1.00;;;;;;5117045;27;21171;-77
2021/10/22 10:20:53;;;;;;;5.25;3.15;;;9.50;1.00;;;;;;5118587;27;20230;-77
2021/10/22 10:23:21;;;;;;;5.05;3.25;;;9.40;1.00;;;;;;5119911;27;20213;-76
2021/10/22 10:25:49;;;;;;;8.68;3.03;;;9.40;1.00;;;;;;5117346;27;20239;-77
2021/10/22 10:28:16;;;;;;;6.40;2.88;;;9.40;1.00;;;;;;5122310;27;20224;-77
2021/10/22 10:30:43;;;;;;;8.73;3.50;;;9.50;1.00;;;;;;5120385;27;20233;-76
2021/10/22 10:33:29;;;;;;;6.10;3.03;;;9.60;1.00;;;;;;5118078;27;20233;-76
2021/10/22 10:35:56;;;;;;;7.05;2.67;;;9.60;1.00;;;;;;5122218;27;20883;-77
2021/10/22 10:38:42;;;;;;;9.10;3.40;;;9.70;1.00;;;;;;5115568;27;20225;-76
2021/10/22 10:41:18;;;;;;;6.68;3.00;;;9.70;1.00;;;;;;5121206;27;20277;-77
2021/10/22 10:43:45;;;;;;;8.93;3.08;;;9.70;1.00;;;;;;5115690;27;20219;-75
2021/10/22 10:46:33;;;;;;;5.00;2.55;;;9.80;1.00;;;;;;5122179;27;20714;-77
2021/10/22 10:48:59;;;;;;;6.18;3.15;;;9.80;1.00;;;;;;5117058;27;20259;-77
2021/10/22 10:51:36;;;;;;;9.45;4.10;;;9.80;1.00;;;;;;5127211;27;20212;-76
2021/10/22 10:54:04;;;;;;;7.80;3.17;;;9.80;1.00;;;;;;5116097;27;20321;-77
2021/10/22 10:56:34;;;;;;;6.18;3.20;;;9.80;1.00;;;;;;5117245;27;20223;-77
2021/10/22 10:59:01;;;;;;;7.53;3.60;;;9.80;1.00;;;;;;5116515;27;20222;-75
2021/10/22 11:01:30;;;;;;;6.00;2.97;;;9.80;1.00;;;;;;5113029;27;20590;-77
2021/10/22 11:03:58;;;;;;;7.85;2.97;;;9.80;1.00;;;;;;5115352;27;20460;-77
2021/10/22 11:06:39;;;;;;;9.50;3.80;;;9.70;1.00;;;;;;5116998;27;20765;-77
2021/10/22 11:09:07;;;;;;;8.60;3.38;;;9.70;1.00;;;;;;5112722;27;20231;-77
2021/10/22 11:11:41;;;;;;;6.50;3.28;;;9.60;1.00;;;;;;5115418;27;20306;-77
2021/10/22 11:14:13;;;;;;;10.63;4.85;;;9.50;1.00;;;;;;5115584;27;20579;-77
2021/10/22 11:16:46;;;;;;;6.93;3.20;;;9.40;1.00;;;;;;5116602;27;20248;-77
2021/10/22 11:19:15;;;;;;;4.18;2.65;;;9.40;1.00;;;;;;5114596;27;20221;-78
2021/10/22 11:21:45;;;;;;;3.85;2.55;;;9.50;1.00;;;;;;5120787;27;20297;-77
2021/10/22 11:24:17;;;;;;;6.05;2.50;;;9.60;1.00;;;;;;5116408;27;20219;-77
2021/10/22 11:26:44;;;;;;;7.15;2.90;;;9.60;1.00;;;;;;5115456;27;20224;-76
2021/10/22 11:29:17;;;;;;;8.77;3.22;;;9.70;1.00;;;;;;5112655;27;20231;-78
2021/10/22 11:31:46;;;;;;;5.30;2.55;;;9.80;1.00;;;;;;5116988;27;20307;-77
2021/10/22 11:34:18;;;;;;;4.80;2.78;;;9.90;1.00;;;;;;5114925;27;20221;-77
2021/10/22 11:36:57;;;;;;;6.85;2.70;;;10.00;1.00;;;;;;5115120;27;20229;-76
2021/10/22 11:39:27;;;;;;;4.50;2.07;;;10.20;1.00;;;;;;5115924;27;20303;-76
2021/10/22 11:42:09;;;;;;;6.60;2.80;;;10.30;1.00;;;;;;5115021;27;20537;-77
2021/10/22 11:44:37;;;;;;;6.30;2.57;;;10.50;1.00;;;;;;5116402;27;20464;-77
2021/10/22 11:47:04;;;;;;;3.67;2.13;;;10.70;1.00;;;;;;5117889;27;20432;-77
2021/10/22 11:49:33;;;;;;;3.63;2.33;;;10.90;1.00;;;;;;5115079;27;20463;-77
2021/10/22 11:52:01;;;;;;;7.13;2.47;;;11.30;1.00;;;;;;5116601;27;20448;-77
2021/10/22 11:54:34;;;;;;;4.87;2.47;;;12.30;1.00;;;;;;5114031;27;20543;-76
2021/10/22 11:57:03;;;;;;;10.93;2.60;;;12.50;1.00;;;;;;5115398;27;20426;-78
2021/10/22 11:59:31;;;;;;;4.03;1.80;;;12.70;1.00;;;;;;5109943;27;20534;-76
2021/10/22 12:02:05;;;;;;;4.30;2.30;;;12.90;1.00;;;;;;5116449;27;21116;-76
2021/10/22 12:04:32;;;;;;;2.87;2.00;;;12.40;1.00;;;;;;5113678;27;20465;-76
2021/10/22 12:07:01;;;;;;;5.37;2.67;;;11.90;1.00;;;;;;5114582;27;20458;-77
2021/10/22 12:09:34;;;;;;;4.03;2.60;;;11.70;1.00;;;;;;5112392;27;20524;-78
2021/10/22 12:12:07;;;;;;;9.00;2.43;;;11.50;1.00;;;;;;5115076;27;20578;-78
2021/10/22 12:14:36;;;;;;;4.90;2.57;;;11.40;1.00;;;;;;5115477;27;20540;-77
2021/10/22 12:17:04;;;;;;;5.07;1.87;;;11.40;1.00;;;;;;5116855;27;20944;-77
2021/10/22 12:19:32;;;;;;;3.80;2.30;;;11.30;1.00;;;;;;5117816;27;20648;-77
2021/10/22 12:21:59;;;;;;;3.63;2.33;;;11.10;1.00;;;;;;5129867;27;20819;-76
2021/10/22 12:24:39;;;;;;;3.70;2.00;;;11.10;1.00;;;;;;5133148;27;20425;-76
2021/10/22 12:27:06;;;;;;;3.30;1.70;;;11.00;1.00;;;;;;5118021;27;20482;-76
2021/10/22 12:29:55;;;;;;;4.97;2.43;;;10.90;1.00;;;;;;5117465;27;20438;-77
2021/10/22 12:32:41;;;;;;;4.60;1.80;;;10.90;1.00;;;;;;5116420;27;21255;-76
2021/10/22 12:35:12;;;;;;;3.50;1.70;;;10.90;1.00;;;;;;5114969;27;20476;-77
2021/10/22 12:37:41;;;;;;;7.43;2.37;;;10.80;1.00;;;;;;5113642;27;20439;-78
2021/10/22 12:40:22;;;;;;;6.37;2.73;;;10.80;1.00;;;;;;5115910;27;20456;-78
2021/10/22 12:43:23;;;;;;;4.23;1.97;;;10.80;1.00;;;;;;5114909;27;20445;-78
2021/10/22 12:45:56;;;;;;;6.37;2.03;;;10.70;1.00;;;;;;5115758;27;20465;-78
2021/10/22 12:48:29;;;;;;;5.65;2.20;;;10.60;1.00;;;;;;5114798;27;20533;-78
2021/10/22 12:51:01;;;;;;;5.43;2.73;;;10.50;1.00;;;;;;5119292;27;20219;-79
2021/10/22 12:53:32;;;;;;;4.37;2.00;;;10.30;1.00;;;;;;5092588;27;20440;-76
2021/10/22 12:56:17;;;;;;;3.73;1.83;;;10.20;1.00;;;;;;5114597;27;20527;-79
2021/10/22 12:58:56;;;;;;;8.68;2.33;;;10.10;1.00;;;;;;5115621;27;20438;-77
2021/10/22 13:01:30;;;;;;;4.65;1.70;;;10.10;1.00;;;;;;5115315;27;20226;-77
2021/10/22 13:04:00;;;;;;;4.97;2.10;;;10.10;1.00;;;;;;5115170;27;20227;-77
2021/10/22 13:06:38;;;;;;;4.07;1.67;;;10.10;1.00;;;;;;5113268;27;20552;-77
2021/10/22 13:09:22;;;;;;;6.68;2.97;;;10.10;1.00;;;;;;5113712;27;20241;-78
2021/10/22 13:20:38;;;;;;;4.25;2.70;;;9.70;1.00;;;;;;5042321;28;20354;-78
2021/10/22 13:23:10;;;;;;;6.25;2.72;;;9.50;1.00;;;;;;5034567;28;20230;-78
2021/10/22 13:25:38;;;;;;;5.27;2.57;;;9.40;1.00;;;;;;5083964;27;20772;-78